Time;durP1;ratioP1;P1;durP2;ratioP2;P2;SDS_P1;SDS_P2;PMS_P1;PMS_P2;Temp;Humidity;BMP_temperature;BMP_pressure;BME280_temperature;BME280_humidity;BME280_pressure;Samples;Min_cycle;Max_cycle;Signal;HPM_P1;HPM_P2
2022/07/21 00:01:14;;;;;;;7.30;2.90;;;;;19.30;97562.00;;;;111328;1245;42109;-73
2022/07/21 00:03:43;;;;;;;9.20;3.00;;;;;19.22;97558.60;;;;111209;1248;40892;-73
2022/07/21 00:06:13;;;;;;;7.30;2.80;;;;;19.20;97561.20;;;;111354;1246;41438;-72
2022/07/21 00:08:43;;;;;;;7.30;2.90;;;;;19.10;97561.00;;;;111215;1247;41287;-74
2022/07/21 00:11:12;;;;;;;8.70;3.30;;;;;19.10;97557.40;;;;111276;1247;41175;-72
2022/07/21 00:13:42;;;;;;;7.90;3.20;;;;;19.10;97554.20;;;;111323;1247;41971;-72
2022/07/21 00:16:12;;;;;;;7.50;3.20;;;;;19.10;97550.80;;;;111492;1245;41267;-72
2022/07/21 00:18:45;;;;;;;10.20;3.70;;;;;19.10;97552.00;;;;111292;1248;41502;-72
2022/07/21 00:21:14;;;;;;;8.10;3.20;;;;;19.00;97554.60;;;;111244;1248;41594;-72
2022/07/21 00:23:43;;;;;;;9.00;3.10;;;;;18.90;97553.20;;;;111029;1250;41616;-72
2022/07/21 00:26:14;;;;;;;7.70;2.90;;;;;18.80;97560.60;;;;111323;1247;41300;-71
2022/07/21 00:28:44;;;;;;;8.50;2.90;;;;;18.70;97562.20;;;;111194;1248;41601;-71
2022/07/21 00:31:13;;;;;;;8.60;2.90;;;;;18.68;97556.00;;;;111214;1247;41498;-72
2022/07/21 00:33:43;;;;;;;16.40;3.30;;;;;18.60;97558.00;;;;111114;1247;41188;-74
2022/07/21 00:36:12;;;;;;;7.30;3.10;;;;;18.60;97562.40;;;;111197;1247;41056;-72
2022/07/21 00:38:41;;;;;;;9.10;3.50;;;;;18.60;97563.80;;;;111291;1246;41622;-78
2022/07/21 00:41:13;;;;;;;7.90;2.80;;;;;18.60;97564.00;;;;111120;1248;41257;-75
2022/07/21 00:43:43;;;;;;;8.10;3.10;;;;;18.50;97564.00;;;;111142;1248;41137;-73
2022/07/21 00:46:13;;;;;;;7.90;3.30;;;;;18.44;97564.60;;;;111158;1248;41532;-73
2022/07/21 00:48:42;;;;;;;7.90;3.10;;;;;18.40;97562.80;;;;111547;1247;41161;-74
2022/07/21 00:51:12;;;;;;;6.70;3.00;;;;;18.40;97558.80;;;;111429;1247;41269;-74
2022/07/21 00:53:42;;;;;;;7.40;3.20;;;;;18.36;97561.80;;;;111085;1247;41117;-74
2022/07/21 00:56:11;;;;;;;8.20;2.70;;;;;18.32;97562.40;;;;111035;1249;41583;-72
2022/07/21 00:58:42;;;;;;;8.30;3.00;;;;;18.38;97563.20;;;;111416;1247;42939;-73
2022/07/21 01:01:12;;;;;;;;;;;;;18.40;97560.00;;;;111234;1248;41175;-75
2022/07/21 01:03:41;;;;;;;7.80;3.00;;;;;18.34;97560.60;;;;111186;1248;41151;-71
2022/07/21 01:06:12;;;;;;;7.80;2.80;;;;;18.36;97561.40;;;;111225;1247;41152;-72
2022/07/21 01:08:42;;;;;;;8.60;3.60;;;;;18.30;97559.40;;;;111146;1249;41152;-76
2022/07/21 01:11:13;;;;;;;11.30;3.70;;;;;18.30;97558.20;;;;111341;1247;41612;-75
2022/07/21 01:13:44;;;;;;;9.00;3.40;;;;;18.20;97556.80;;;;111417;1247;42255;-73
2022/07/21 01:16:14;;;;;;;7.90;2.90;;;;;18.10;97560.20;;;;111469;1245;42078;-72
2022/07/21 01:18:45;;;;;;;7.60;3.00;;;;;18.00;97555.20;;;;111207;1248;41153;-73
2022/07/21 01:21:32;;;;;;;10.20;3.00;;;;;17.90;97559.40;;;;111230;1247;41154;-73
2022/07/21 01:24:05;;;;;;;7.70;3.20;;;;;17.90;97564.40;;;;111225;1247;41250;-73
2022/07/21 01:26:49;;;;;;;9.00;3.20;;;;;17.90;97569.20;;;;111196;1247;40986;-75
2022/07/21 01:29:19;;;;;;;9.40;3.10;;;;;17.78;97570.80;;;;111206;1248;42515;-75
2022/07/21 01:31:50;;;;;;;8.40;3.40;;;;;17.70;97568.80;;;;111257;1247;41133;-74
2022/07/21 01:34:19;;;;;;;7.20;3.00;;;;;17.70;97563.20;;;;111369;1247;42179;-73
2022/07/21 01:36:49;;;;;;;6.70;2.80;;;;;17.60;97568.00;;;;111459;1245;41168;-73
2022/07/21 01:42:08;;;;;;;9.40;3.60;;;;;17.60;97563.80;;;;111217;1246;41609;-73
2022/07/21 01:44:40;;;;;;;12.60;4.10;;;;;17.60;97563.40;;;;111409;1247;41133;-72
2022/07/21 01:47:10;;;;;;;8.10;2.80;;;;;17.70;97556.20;;;;111206;1247;41486;-72
2022/07/21 01:49:40;;;;;;;7.70;3.50;;;;;17.60;97555.80;;;;111405;1246;41991;-71
2022/07/21 01:52:10;;;;;;;7.60;3.70;;;;;17.30;97560.80;;;;111433;1244;41586;-72
2022/07/21 01:54:41;;;;;;;8.20;2.80;;;;;17.30;97551.20;;;;111244;1247;41940;-73
2022/07/21 01:57:11;;;;;;;11.20;3.20;;;;;17.24;97549.80;;;;111567;1244;41248;-74
2022/07/21 01:59:42;;;;;;;7.20;3.00;;;;;17.20;97541.40;;;;111194;1248;41147;-76
2022/07/21 02:02:14;;;;;;;6.90;2.80;;;;;17.20;97540.40;;;;111171;1248;41605;-72
2022/07/21 02:04:44;;;;;;;7.80;3.10;;;;;17.18;97544.40;;;;111349;1247;41167;-75
2022/07/21 02:07:14;;;;;;;7.20;2.90;;;;;17.14;97545.40;;;;111188;1246;41154;-76
2022/07/21 02:09:43;;;;;;;7.20;3.10;;;;;17.10;97550.80;;;;111067;1249;41899;-72
2022/07/21 02:12:15;;;;;;;7.30;2.90;;;;;17.14;97549.20;;;;111273;1247;41734;-72
2022/07/21 02:14:45;;;;;;;7.60;3.20;;;;;17.10;97545.80;;;;111297;1247;41861;-73
2022/07/21 02:17:15;;;;;;;7.20;3.00;;;;;17.10;97546.00;;;;111104;1247;41719;-73
2022/07/21 02:19:46;;;;;;;8.90;3.60;;;;;17.10;97545.20;;;;111355;1247;41142;-72
2022/07/21 02:22:15;;;;;;;6.00;2.70;;;;;17.10;97548.80;;;;111261;1247;41581;-72
2022/07/21 02:24:46;;;;;;;8.80;3.10;;;;;17.00;97545.80;;;;111232;1247;41159;-71
2022/07/21 02:27:17;;;;;;;6.30;2.80;;;;;16.92;97546.80;;;;111256;1248;42371;-72
2022/07/21 02:29:46;;;;;;;6.00;2.70;;;;;16.88;97549.80;;;;111429;1246;42633;-72
2022/07/21 02:32:16;;;;;;;5.30;2.50;;;;;16.80;97544.40;;;;111235;1247;41120;-73
2022/07/21 02:34:45;;;;;;;5.20;2.40;;;;;16.80;97541.60;;;;111265;1247;41749;-76
2022/07/21 02:37:15;;;;;;;4.10;2.20;;;;;16.72;97534.20;;;;111367;1246;41159;-77
2022/07/21 02:39:45;;;;;;;5.50;2.30;;;;;16.70;97535.00;;;;111590;1245;41461;-76
2022/07/21 02:42:15;;;;;;;6.00;2.40;;;;;16.70;97541.20;;;;111185;1247;41547;-77
2022/07/21 02:44:45;;;;;;;;;;;;;16.66;97544.20;;;;111306;1247;43098;-75
2022/07/21 02:47:15;;;;;;;7.10;2.80;;;;;16.60;97545.80;;;;111212;1247;41283;-78
2022/07/21 02:49:45;;;;;;;11.70;3.90;;;;;16.60;97553.80;;;;111160;1248;41140;-75
2022/07/21 02:52:15;;;;;;;9.40;3.10;;;;;16.60;97555.60;;;;111128;1250;41274;-76
2022/07/21 02:54:45;;;;;;;11.10;3.70;;;;;16.54;97559.60;;;;111341;1244;41179;-76
2022/07/21 02:57:14;;;;;;;8.00;3.20;;;;;16.50;97562.60;;;;111569;1245;41117;-76
2022/07/21 02:59:44;;;;;;;10.80;3.20;;;;;16.50;97566.80;;;;111272;1244;41148;-76
2022/07/21 03:02:15;;;;;;;7.00;2.90;;;;;16.40;97564.00;;;;111484;1247;42175;-75
2022/07/21 03:04:45;;;;;;;7.00;2.70;;;;;16.40;97568.00;;;;111442;1246;41871;-75
2022/07/21 03:07:15;;;;;;;6.00;2.30;;;;;16.40;97566.80;;;;111223;1247;42175;-75
2022/07/21 03:09:45;;;;;;;7.60;2.70;;;;;16.40;97564.60;;;;111156;1248;41805;-75
2022/07/21 03:12:15;;;;;;;6.40;2.60;;;;;16.40;97565.20;;;;111195;1248;41148;-73
2022/07/21 03:14:45;;;;;;;10.10;3.90;;;;;16.40;97568.20;;;;111225;1247;41194;-76
2022/07/21 03:17:19;;;;;;;8.70;3.50;;;;;16.40;97569.00;;;;111362;1247;41346;-77
2022/07/21 03:19:49;;;;;;;8.60;3.10;;;;;16.38;97566.60;;;;111238;1247;41137;-76
2022/07/21 03:22:19;;;;;;;8.70;3.80;;;;;16.30;97566.20;;;;111196;1247;41526;-76
2022/07/21 03:24:50;;;;;;;8.20;3.10;;;;;16.20;97571.20;;;;111414;1245;41149;-73
2022/07/21 03:27:21;;;;;;;7.80;3.40;;;;;16.20;97573.20;;;;111140;1249;41178;-76
2022/07/21 03:29:52;;;;;;;8.10;3.80;;;;;16.20;97570.40;;;;111185;1249;41344;-73
2022/07/21 03:32:21;;;;;;;8.40;3.40;;;;;16.30;97561.60;;;;111201;1248;41139;-75
2022/07/21 03:34:52;;;;;;;8.50;3.40;;;;;16.30;97557.40;;;;111230;1247;41279;-75
2022/07/21 03:37:21;;;;;;;7.70;3.50;;;;;16.30;97570.80;;;;111225;1247;40863;-75
2022/07/21 03:39:50;;;;;;;8.20;3.30;;;;;16.30;97574.20;;;;111163;1247;41145;-76
2022/07/21 03:42:20;;;;;;;8.00;3.20;;;;;16.38;97580.80;;;;111198;1248;41524;-76
2022/07/21 03:44:50;;;;;;;;;;;;;16.40;97585.20;;;;111250;1247;41708;-73
2022/07/21 03:47:20;;;;;;;9.00;3.90;;;;;16.40;97584.40;;;;111388;1247;41158;-74
2022/07/21 03:49:50;;;;;;;8.00;4.20;;;;;16.38;97590.80;;;;111161;1247;41998;-76
2022/07/21 03:52:19;;;;;;;8.90;4.00;;;;;16.40;97583.60;;;;111213;1248;41244;-76
2022/07/21 03:54:49;;;;;;;9.90;3.70;;;;;16.40;97592.60;;;;111144;1247;41586;-76
2022/07/21 03:57:19;;;;;;;9.40;3.70;;;;;16.44;97595.60;;;;111222;1247;41610;-73
2022/07/21 03:59:48;;;;;;;10.70;4.20;;;;;16.40;97594.20;;;;111371;1245;41337;-73
2022/07/21 04:02:24;;;;;;;8.20;3.60;;;;;16.40;97599.40;;;;111229;1248;41140;-73
2022/07/21 04:04:54;;;;;;;7.90;3.60;;;;;16.50;97598.40;;;;111210;1247;41127;-73
2022/07/21 04:07:24;;;;;;;10.30;4.40;;;;;16.50;97592.80;;;;111266;1247;41137;-73
2022/07/21 04:09:53;;;;;;;9.10;3.70;;;;;16.60;97594.80;;;;111065;1247;42197;-72
2022/07/21 04:12:27;;;;;;;8.60;3.70;;;;;16.70;97591.80;;;;111243;1247;42127;-73
2022/07/21 04:14:57;;;;;;;10.60;3.80;;;;;16.80;97593.20;;;;111488;1247;41181;-73
2022/07/21 04:17:26;;;;;;;8.70;3.70;;;;;16.90;97590.60;;;;111154;1247;41151;-73
2022/07/21 04:19:56;;;;;;;7.70;3.30;;;;;17.10;97584.80;;;;111346;1247;41131;-72
2022/07/21 04:22:25;;;;;;;7.70;3.20;;;;;17.54;97580.40;;;;111397;1247;41333;-72
2022/07/21 04:24:55;;;;;;;8.50;3.20;;;;;18.00;97575.20;;;;111342;1246;41323;-72
2022/07/21 04:27:24;;;;;;;8.50;3.40;;;;;18.50;97577.60;;;;111213;1247;41997;-72
2022/07/21 04:29:54;;;;;;;7.90;2.90;;;;;18.96;97574.40;;;;111489;1247;41132;-71
2022/07/21 04:32:23;;;;;;;7.70;3.60;;;;;19.50;97570.00;;;;111171;1247;41985;-74
2022/07/21 04:34:52;;;;;;;6.60;2.90;;;;;20.02;97570.00;;;;111451;1247;41586;-72
2022/07/21 04:37:22;;;;;;;6.20;2.80;;;;;20.52;97567.20;;;;111195;1248;42067;-74
2022/07/21 04:39:51;;;;;;;6.30;2.90;;;;;21.10;97566.00;;;;111169;1247;41161;-73
2022/07/21 04:42:20;;;;;;;7.10;2.70;;;;;21.60;97560.60;;;;111419;1247;41241;-72
2022/07/21 04:44:50;;;;;;;7.90;3.60;;;;;22.10;97566.20;;;;111138;1248;41189;-72
2022/07/21 04:47:19;;;;;;;8.30;3.80;;;;;22.36;97557.00;;;;111128;1248;41197;-72
2022/07/21 04:49:48;;;;;;;9.20;4.20;;;;;22.50;97560.20;;;;111342;1247;41430;-72
2022/07/21 04:52:17;;;;;;;9.10;3.80;;;;;22.80;97557.40;;;;111365;1247;41621;-71
2022/07/21 04:54:46;;;;;;;9.20;3.80;;;;;23.30;97543.40;;;;111359;1247;42067;-72
2022/07/21 04:57:15;;;;;;;8.60;3.30;;;;;23.80;97537.60;;;;111457;1247;41682;-73
2022/07/21 04:59:44;;;;;;;11.30;3.20;;;;;24.32;97533.40;;;;111391;1247;41570;-72
2022/07/21 05:02:13;;;;;;;11.30;4.30;;;;;24.90;97533.80;;;;111063;1247;41159;-72
2022/07/21 05:04:43;;;;;;;8.10;3.70;;;;;24.92;97535.80;;;;111166;1246;42223;-72
2022/07/21 05:07:12;;;;;;;8.90;3.40;;;;;24.96;97536.20;;;;111048;1250;41138;-72
2022/07/21 05:09:42;;;;;;;8.20;3.50;;;;;25.30;97536.60;;;;111390;1247;41145;-72
2022/07/21 05:12:11;;;;;;;8.20;3.50;;;;;25.50;97536.40;;;;111107;1249;41146;-73
2022/07/21 05:14:40;;;;;;;9.60;3.90;;;;;25.58;97534.20;;;;111101;1247;41172;-73
2022/07/21 05:17:09;;;;;;;10.30;3.70;;;;;25.14;97537.00;;;;111114;1248;41653;-73
2022/07/21 05:19:38;;;;;;;9.40;4.00;;;;;24.98;97537.00;;;;111191;1247;41920;-73
2022/07/21 05:22:12;;;;;;;9.20;3.40;;;;;25.22;97529.60;;;;111173;1250;41154;-69
2022/07/21 05:24:47;;;;;;;7.50;3.00;;;;;25.50;97531.40;;;;111304;1247;41554;-73
2022/07/21 05:27:23;;;;;;;6.70;3.10;;;;;25.86;97537.00;;;;111176;1248;40736;-71
2022/07/21 05:29:58;;;;;;;9.00;3.30;;;;;26.40;97533.80;;;;111263;1248;42059;-72
2022/07/21 05:32:27;;;;;;;8.30;3.40;;;;;26.90;97535.60;;;;111171;1248;41114;-71
2022/07/21 05:34:56;;;;;;;6.70;2.80;;;;;27.12;97538.00;;;;111187;1247;41291;-73
2022/07/21 05:37:27;;;;;;;7.50;2.70;;;;;27.50;97539.40;;;;111074;1249;41602;-72
2022/07/21 05:39:56;;;;;;;11.40;3.50;;;;;27.64;97541.40;;;;111074;1250;41245;-72
2022/07/21 05:42:25;;;;;;;8.70;2.80;;;;;27.14;97558.20;;;;111122;1249;41143;-73
2022/07/21 05:44:55;;;;;;;11.30;2.90;;;;;26.42;97565.80;;;;111184;1250;41208;-72
2022/07/21 05:47:24;;;;;;;9.00;4.20;;;;;26.02;97571.40;;;;111050;1248;41827;-72
2022/07/21 05:49:53;;;;;;;8.60;3.80;;;;;25.36;97566.00;;;;111196;1247;41279;-73
2022/07/21 05:52:22;;;;;;;12.70;3.90;;;;;25.30;97554.80;;;;111073;1248;42421;-72
2022/07/21 05:54:51;;;;;;;11.20;3.60;;;;;25.50;97553.80;;;;111126;1248;41155;-72
2022/07/21 05:57:20;;;;;;;7.40;2.90;;;;;26.00;97554.20;;;;111172;1250;41145;-73
2022/07/21 05:59:49;;;;;;;7.40;3.30;;;;;26.46;97554.80;;;;111425;1245;41300;-73
2022/07/21 06:02:18;;;;;;;8.20;3.40;;;;;27.02;97554.00;;;;111323;1246;40720;-73
2022/07/21 06:04:47;;;;;;;8.40;2.70;;;;;27.30;97555.20;;;;111394;1247;41255;-73
2022/07/21 06:07:17;;;;;;;7.70;2.70;;;;;27.92;97549.20;;;;111248;1247;41126;-73
2022/07/21 06:09:46;;;;;;;6.20;2.40;;;;;28.40;97553.60;;;;111157;1250;41767;-73
2022/07/21 06:12:15;;;;;;;6.00;2.40;;;;;29.12;97550.00;;;;111115;1247;41615;-73
2022/07/21 06:14:44;;;;;;;6.60;2.70;;;;;29.90;97544.20;;;;111020;1250;41424;-73
2022/07/21 06:17:14;;;;;;;8.30;2.90;;;;;30.56;97539.40;;;;111307;1247;42362;-75
2022/07/21 06:19:43;;;;;;;6.10;2.50;;;;;31.20;97540.80;;;;111452;1247;42350;-75
2022/07/21 06:22:12;;;;;;;7.10;2.60;;;;;31.70;97541.60;;;;111234;1247;41296;-75
2022/07/21 06:24:41;;;;;;;10.00;2.60;;;;;32.28;97544.20;;;;111227;1247;41154;-75
2022/07/21 06:27:10;;;;;;;5.60;2.10;;;;;32.60;97537.80;;;;111182;1247;41916;-75
2022/07/21 06:29:39;;;;;;;8.20;2.40;;;;;33.10;97531.80;;;;111210;1250;41599;-74
2022/07/21 06:32:07;;;;;;;7.10;2.60;;;;;33.50;97530.80;;;;111410;1247;42469;-77
2022/07/21 06:34:36;;;;;;;5.60;2.50;;;;;33.80;97525.40;;;;111436;1246;41136;-75
2022/07/21 06:37:05;;;;;;;7.30;2.50;;;;;34.20;97520.00;;;;111236;1247;41595;-74
2022/07/21 06:39:39;;;;;;;6.60;2.20;;;;;34.60;97523.40;;;;111254;1247;41173;-73
2022/07/21 06:42:09;;;;;;;7.20;2.40;;;;;35.20;97524.80;;;;111215;1248;41936;-74
2022/07/21 06:44:38;;;;;;;7.60;2.20;;;;;35.70;97520.60;;;;111135;1248;41154;-75
2022/07/21 06:47:07;;;;;;;5.20;2.30;;;;;36.10;97523.60;;;;111203;1248;42603;-74
2022/07/21 06:49:36;;;;;;;5.40;2.10;;;;;36.50;97521.60;;;;111241;1248;41148;-74
2022/07/21 06:52:05;;;;;;;6.40;2.40;;;;;36.80;97525.20;;;;111171;1248;41261;-73
2022/07/21 06:54:34;;;;;;;5.50;2.10;;;;;37.20;97518.40;;;;111132;1247;42073;-73
2022/07/21 06:57:03;;;;;;;4.80;2.10;;;;;37.30;97518.60;;;;111206;1248;41618;-73
2022/07/21 06:59:32;;;;;;;6.30;2.20;;;;;37.64;97519.00;;;;111202;1248;41601;-74
2022/07/21 07:02:01;;;;;;;7.20;2.10;;;;;37.90;97517.00;;;;111150;1249;41397;-74
2022/07/21 07:04:30;;;;;;;5.90;2.30;;;;;38.22;97522.60;;;;111156;1248;42399;-72
2022/07/21 07:06:59;;;;;;;7.10;2.40;;;;;38.54;97521.60;;;;111239;1247;41690;-74
2022/07/21 07:09:28;;;;;;;7.40;2.40;;;;;38.64;97517.20;;;;111172;1248;41151;-72
2022/07/21 07:12:03;;;;;;;4.30;1.90;;;;;38.64;97514.20;;;;110986;1250;41131;-73
2022/07/21 07:14:52;;;;;;;5.60;2.10;;;;;38.50;97517.60;;;;111193;1247;41335;-74
2022/07/21 07:17:21;;;;;;;6.70;2.20;;;;;38.20;97509.40;;;;111197;1248;41831;-72
2022/07/21 07:19:50;;;;;;;6.50;2.60;;;;;36.84;97514.20;;;;111240;1248;41552;-73
2022/07/21 07:22:19;;;;;;;5.70;2.30;;;;;36.00;97521.00;;;;111149;1249;41260;-73
2022/07/21 07:24:48;;;;;;;7.70;2.70;;;;;35.24;97527.40;;;;111208;1248;41143;-73
2022/07/21 07:27:17;;;;;;;6.00;2.40;;;;;34.00;97531.20;;;;111133;1249;41297;-74
2022/07/21 07:29:51;;;;;;;15.30;2.30;;;;;33.66;97533.40;;;;111131;1248;42208;-73
2022/07/21 07:32:20;;;;;;;4.80;2.10;;;;;33.34;97535.40;;;;110841;1251;41638;-73
2022/07/21 07:34:49;;;;;;;6.20;2.40;;;;;33.08;97539.20;;;;111122;1247;41325;-72
2022/07/21 07:37:18;;;;;;;7.10;2.50;;;;;32.90;97535.20;;;;111181;1247;41710;-73
2022/07/21 07:39:47;;;;;;;7.90;2.40;;;;;32.80;97532.20;;;;111186;1247;41723;-73
2022/07/21 07:42:16;;;;;;;9.40;2.50;;;;;32.60;97533.20;;;;111296;1247;41146;-73
2022/07/21 07:44:46;;;;;;;7.30;2.50;;;;;32.50;97532.80;;;;110720;1248;471107;-73
2022/07/21 07:47:15;;;;;;;5.30;2.20;;;;;32.40;97535.20;;;;111159;1248;41340;-73
2022/07/21 07:49:44;;;;;;;5.90;2.40;;;;;32.18;97534.80;;;;111478;1247;41274;-73
2022/07/21 07:52:13;;;;;;;6.50;2.50;;;;;32.20;97534.00;;;;111273;1247;41145;-72
2022/07/21 07:54:42;;;;;;;5.40;2.40;;;;;32.14;97534.40;;;;111285;1247;41298;-73
2022/07/21 07:57:11;;;;;;;6.70;2.40;;;;;32.20;97531.20;;;;111406;1247;41235;-72
2022/07/21 07:59:40;;;;;;;6.80;2.40;;;;;32.18;97527.60;;;;111381;1247;41609;-72
2022/07/21 08:02:09;;;;;;;5.20;2.30;;;;;32.14;97526.80;;;;111321;1247;41306;-73
2022/07/21 08:04:40;;;;;;;6.80;2.60;;;;;32.08;97521.80;;;;111371;1247;41889;-72
2022/07/21 08:07:09;;;;;;;6.80;2.40;;;;;32.00;97522.20;;;;111398;1247;41373;-73
2022/07/21 08:09:40;;;;;;;6.70;2.40;;;;;32.00;97519.20;;;;111172;1247;41132;-73
2022/07/21 08:12:09;;;;;;;7.30;2.40;;;;;32.10;97520.00;;;;111273;1247;41638;-73
2022/07/21 08:14:38;;;;;;;7.20;2.50;;;;;32.10;97520.60;;;;110974;1251;41251;-73
2022/07/21 08:17:07;;;;;;;6.90;2.60;;;;;32.02;97522.80;;;;111380;1247;41578;-73
2022/07/21 08:19:36;;;;;;;6.30;2.30;;;;;31.48;97517.40;;;;111342;1247;41554;-73
2022/07/21 08:22:05;;;;;;;6.50;2.40;;;;;31.74;97520.80;;;;111153;1247;42057;-74
2022/07/21 08:24:41;;;;;;;7.40;2.40;;;;;31.10;97516.40;;;;111443;1247;41722;-73
2022/07/21 08:27:10;;;;;;;6.30;2.40;;;;;31.14;97515.40;;;;111241;1247;41143;-73
2022/07/21 08:29:39;;;;;;;9.90;3.10;;;;;31.34;97509.20;;;;111155;1247;41475;-73
2022/07/21 08:32:09;;;;;;;9.60;3.30;;;;;31.40;97499.60;;;;111156;1247;41592;-74
2022/07/21 08:34:38;;;;;;;6.30;2.80;;;;;30.94;97504.80;;;;111365;1247;41220;-73
2022/07/21 08:37:07;;;;;;;10.30;2.90;;;;;30.90;97505.20;;;;111102;1250;41276;-75
2022/07/21 08:39:35;;;;;;;6.20;2.30;;;;;31.04;97506.40;;;;111255;1248;41152;-73
2022/07/21 08:42:07;;;;;;;7.20;2.50;;;;;31.30;97506.40;;;;111068;1248;42145;-74
2022/07/21 08:44:37;;;;;;;6.70;2.30;;;;;31.58;97496.60;;;;111124;1250;41271;-73
2022/07/21 08:47:06;;;;;;;4.60;2.10;;;;;31.78;97499.40;;;;111187;1248;41171;-72
2022/07/21 08:49:36;;;;;;;5.80;2.40;;;;;32.14;97500.00;;;;111109;1250;41534;-73
2022/07/21 08:52:07;;;;;;;6.90;2.30;;;;;32.48;97498.80;;;;111155;1249;41989;-73
2022/07/21 08:54:35;;;;;;;12.00;2.30;;;;;32.60;97491.00;;;;110978;1249;41615;-73
2022/07/21 08:57:04;;;;;;;6.60;2.20;;;;;32.70;97493.80;;;;111130;1248;41152;-73
2022/07/21 08:59:33;;;;;;;6.20;2.10;;;;;33.00;97492.20;;;;111207;1249;41927;-72
2022/07/21 09:02:03;;;;;;;5.90;2.40;;;;;33.10;97486.40;;;;111356;1247;41384;-71
2022/07/21 09:04:33;;;;;;;;;;;;;33.50;97484.00;;;;111109;1248;42386;-72
2022/07/21 09:07:07;;;;;;;6.30;2.40;;;;;33.80;97469.20;;;;111211;1248;41132;-73
2022/07/21 09:09:36;;;;;;;8.00;2.60;;;;;33.38;97484.40;;;;111156;1249;41785;-72
2022/07/21 09:12:06;;;;;;;5.80;2.30;;;;;33.66;97489.80;;;;110909;1250;41141;-72
2022/07/21 09:14:36;;;;;;;;;;;;;33.88;97492.00;;;;111146;1249;41484;-73
2022/07/21 09:17:06;;;;;;;;;;;;;34.48;97481.80;;;;111154;1250;42459;-72
2022/07/21 09:19:38;;;;;;;6.40;2.20;;;;;34.78;97482.00;;;;111161;1248;41121;-73
2022/07/21 09:22:14;;;;;;;5.00;2.00;;;;;35.48;97479.00;;;;111151;1248;41192;-73
2022/07/21 09:24:48;;;;;;;7.50;2.20;;;;;36.10;97472.00;;;;111146;1247;41260;-72
2022/07/21 09:27:22;;;;;;;6.90;2.20;;;;;36.74;97468.60;;;;111182;1248;41137;-71
2022/07/21 09:29:59;;;;;;;7.20;2.10;;;;;36.98;97464.00;;;;111057;1250;41304;-73
2022/07/21 09:32:31;;;;;;;6.80;2.10;;;;;37.20;97465.40;;;;111195;1248;41175;-73
2022/07/21 09:35:10;;;;;;;6.20;2.10;;;;;37.46;97461.40;;;;111117;1249;41304;-72
2022/07/21 09:37:39;;;;;;;6.50;2.00;;;;;37.62;97470.00;;;;111301;1247;41155;-72
2022/07/21 09:40:11;;;;;;;4.60;1.80;;;;;37.28;97458.80;;;;111328;1247;41348;-73
2022/07/21 09:42:43;;;;;;;4.10;1.90;;;;;38.14;97457.40;;;;111174;1247;42375;-73
2022/07/21 09:45:16;;;;;;;6.30;2.00;;;;;37.54;97454.20;;;;111229;1247;41738;-72
2022/07/21 09:47:46;;;;;;;7.90;2.00;;;;;38.08;97452.20;;;;111241;1247;42119;-72
2022/07/21 09:50:17;;;;;;;5.90;1.90;;;;;38.86;97453.00;;;;111191;1248;41131;-72
2022/07/21 09:53:02;;;;;;;8.50;2.10;;;;;39.28;97450.80;;;;111376;1247;41281;-73
2022/07/21 09:55:31;;;;;;;7.00;2.10;;;;;39.58;97452.00;;;;111206;1247;41605;-73
2022/07/21 09:58:01;;;;;;;6.20;2.10;;;;;39.60;97454.60;;;;111281;1247;41111;-73
2022/07/21 10:00:30;;;;;;;6.40;2.00;;;;;39.70;97448.80;;;;111412;1247;41145;-73
2022/07/21 10:03:01;;;;;;;5.50;1.80;;;;;39.88;97438.40;;;;111176;1247;41725;-73
2022/07/21 10:05:30;;;;;;;5.50;1.70;;;;;39.88;97436.00;;;;111224;1247;41573;-73
2022/07/21 10:08:03;;;;;;;5.90;1.70;;;;;40.28;97435.40;;;;111347;1247;41176;-72
2022/07/21 10:10:33;;;;;;;5.70;1.90;;;;;40.70;97430.80;;;;111166;1247;42580;-73
2022/07/21 10:13:22;;;;;;;5.70;1.80;;;;;40.40;97434.80;;;;111327;1246;41630;-72
2022/07/21 10:15:52;;;;;;;4.50;1.70;;;;;40.16;97432.80;;;;111334;1247;41953;-72
2022/07/21 10:18:35;;;;;;;4.20;1.70;;;;;40.00;97434.80;;;;110975;1247;41155;-73
2022/07/21 10:21:14;;;;;;;4.50;1.80;;;;;39.80;97433.60;;;;111448;1247;41133;-74
2022/07/21 10:23:44;;;;;;;3.30;1.60;;;;;39.50;97436.60;;;;111334;1248;40750;-73
2022/07/21 10:26:12;;;;;;;;;;;;;39.40;97437.20;;;;111170;1248;41498;-73
2022/07/21 10:28:43;;;;;;;4.30;1.80;;;;;39.52;97433.20;;;;111179;1248;41202;-73
2022/07/21 10:31:21;;;;;;;5.00;1.90;;;;;39.10;97437.20;;;;111152;1248;41149;-73
2022/07/21 10:33:50;;;;;;;3.20;1.40;;;;;39.00;97437.60;;;;111226;1246;41146;-73
2022/07/21 10:36:28;;;;;;;;;;;;;38.90;97434.60;;;;111388;1247;41725;-74
2022/07/21 10:39:06;;;;;;;3.30;1.40;;;;;39.00;97436.40;;;;111319;1247;42118;-74
2022/07/21 10:41:42;;;;;;;5.70;1.80;;;;;38.96;97434.60;;;;111391;1247;41139;-73
2022/07/21 10:44:30;;;;;;;5.10;1.90;;;;;38.86;97431.40;;;;111227;1247;41904;-73
2022/07/21 10:47:34;;;;;;;4.00;1.70;;;;;38.06;97427.80;;;;111367;1247;41493;-72
2022/07/21 10:50:07;;;;;;;3.90;1.60;;;;;38.02;97429.20;;;;110555;1255;41270;-72
2022/07/21 10:52:36;;;;;;;6.00;1.90;;;;;37.64;97428.20;;;;110528;1254;41147;-72
2022/07/21 10:55:11;;;;;;;4.10;1.70;;;;;37.88;97419.00;;;;110577;1254;41621;-72
2022/07/21 10:57:42;;;;;;;4.60;1.80;;;;;38.06;97423.20;;;;110610;1255;41635;-72
2022/07/21 11:00:22;;;;;;;3.70;1.60;;;;;38.12;97423.20;;;;110596;1254;42453;-73
2022/07/21 11:03:02;;;;;;;5.90;1.70;;;;;38.34;97422.00;;;;110651;1254;41626;-72
2022/07/21 11:05:33;;;;;;;5.10;1.80;;;;;38.56;97417.20;;;;110684;1254;41628;-72
2022/07/21 11:08:13;;;;;;;4.00;1.50;;;;;38.90;97422.60;;;;110657;1254;41642;-73
2022/07/21 11:10:48;;;;;;;5.80;1.90;;;;;39.34;97418.60;;;;110638;1254;41163;-72
2022/07/21 11:13:22;;;;;;;4.70;1.80;;;;;40.16;97416.40;;;;110708;1255;41369;-72
2022/07/21 11:15:51;;;;;;;4.30;1.60;;;;;40.56;97410.60;;;;110566;1254;41163;-73
2022/07/21 11:18:25;;;;;;;5.50;1.90;;;;;41.36;97410.20;;;;110515;1254;41641;-72
2022/07/21 11:21:14;;;;;;;2.50;1.50;;;;;41.60;97393.60;;;;110544;1255;41159;-73
2022/07/21 11:23:48;;;;;;;5.30;1.70;;;;;41.54;97404.80;;;;110641;1248;42030;-74
2022/07/21 11:26:19;;;;;;;5.80;1.80;;;;;42.16;97401.20;;;;111170;1247;41258;-72
2022/07/21 11:29:04;;;;;;;4.50;1.80;;;;;42.48;97403.20;;;;111281;1247;41594;-71
2022/07/21 11:31:45;;;;;;;5.30;2.10;;;;;43.10;97397.80;;;;111166;1247;41121;-73
2022/07/21 11:34:14;;;;;;;4.60;1.70;;;;;42.88;97396.40;;;;111234;1248;41926;-73
2022/07/21 11:36:43;;;;;;;5.40;1.80;;;;;42.40;97390.60;;;;111185;1247;41570;-72
2022/07/21 11:39:13;;;;;;;;;;;;;42.78;97389.60;;;;111194;1247;41179;-72
2022/07/21 11:41:43;;;;;;;3.40;1.70;;;;;42.74;97396.80;;;;111238;1247;41169;-71
2022/07/21 11:44:23;;;;;;;5.70;1.60;;;;;43.38;97394.80;;;;111384;1247;42005;-72
2022/07/21 11:46:54;;;;;;;3.80;1.40;;;;;44.00;97390.60;;;;111198;1247;40740;-72
2022/07/21 11:49:23;;;;;;;5.10;1.70;;;;;44.14;97388.00;;;;111109;1247;41727;-73
2022/07/21 11:51:59;;;;;;;;;;;;;44.18;97387.80;;;;111181;1247;41140;-72
2022/07/21 11:54:31;;;;;;;5.00;1.80;;;;;44.10;97390.40;;;;111147;1248;41238;-73
2022/07/21 11:57:02;;;;;;;5.20;1.80;;;;;44.38;97391.20;;;;111258;1247;41608;-73
2022/07/21 11:59:33;;;;;;;3.10;1.50;;;;;43.36;97388.80;;;;111283;1247;41784;-72
2022/07/21 12:02:19;;;;;;;5.50;1.50;;;;;42.00;97390.40;;;;111212;1247;41233;-71
2022/07/21 12:04:55;;;;;;;3.70;1.70;;;;;42.34;97388.60;;;;111485;1247;41121;-72
2022/07/21 12:07:34;;;;;;;6.80;1.80;;;;;42.94;97382.20;;;;111504;1247;41157;-72
2022/07/21 12:10:05;;;;;;;;;;;;;43.48;97378.60;;;;111442;1247;42498;-72
2022/07/21 12:12:35;;;;;;;4.30;1.50;;;;;43.78;97374.60;;;;111351;1247;42146;-72
2022/07/21 12:15:29;;;;;;;6.80;1.80;;;;;43.94;97372.60;;;;111191;1247;41226;-73
2022/07/21 12:18:01;;;;;;;3.70;1.60;;;;;43.92;97363.60;;;;111196;1247;42402;-72
2022/07/21 12:20:37;;;;;;;8.00;2.00;;;;;43.44;97367.60;;;;111316;1247;41466;-72
2022/07/21 12:23:26;;;;;;;5.20;1.50;;;;;43.70;97358.00;;;;111164;1248;41636;-73
2022/07/21 12:26:00;;;;;;;4.20;1.70;;;;;42.64;97363.80;;;;111224;1250;41252;-73
2022/07/21 12:28:52;;;;;;;4.50;2.00;;;;;41.66;97371.40;;;;111364;1247;42483;-72
2022/07/21 12:31:21;;;;;;;4.80;1.80;;;;;40.80;97363.80;;;;111346;1247;41602;-72
2022/07/21 12:33:52;;;;;;;6.90;1.60;;;;;40.14;97361.60;;;;111155;1247;41628;-73